createdAt,value
2023-05-21T00:02:21.539Z,100827.00
2023-05-21T00:04:48.636Z,100821.13
2023-05-21T00:07:15.647Z,100821.31
2023-05-21T00:09:42.357Z,100821.94
2023-05-21T00:12:09.799Z,100827.16
2023-05-21T00:14:39.966Z,100833.47
2023-05-21T00:17:07.126Z,100832.63
2023-05-21T00:19:34.020Z,100823.78
2023-05-21T00:22:04.558Z,100822.94
2023-05-21T00:24:31.350Z,100825.69
2023-05-21T00:26:58.287Z,100820.88
2023-05-21T00:29:26.729Z,100826.97
2023-05-21T00:31:53.894Z,100824.41
2023-05-21T00:34:20.637Z,100824.81
2023-05-21T00:36:47.340Z,100826.88
2023-05-21T00:39:16.464Z,100818.69
2023-05-21T00:41:43.242Z,100825.41
2023-05-21T00:44:09.960Z,100823.34
2023-05-21T00:46:36.860Z,100825.66
2023-05-21T00:49:04.012Z,100815.78
2023-05-21T00:51:31.063Z,100812.00
2023-05-21T00:53:58.893Z,100818.06
2023-05-21T00:56:27.270Z,100819.97
2023-05-21T00:58:57.573Z,100812.19
2023-05-21T01:01:27.097Z,100806.72
2023-05-21T01:03:57.946Z,100815.56
2023-05-21T01:06:25.431Z,100801.03
2023-05-21T01:08:52.135Z,100796.63
2023-05-21T01:11:19.263Z,100801.03
2023-05-21T01:13:47.132Z,100795.59
2023-05-21T01:16:14.348Z,100797.25
2023-05-21T01:18:43.658Z,100792.63
2023-05-21T01:21:10.679Z,100794.34
2023-05-21T01:23:37.390Z,100792.63
2023-05-21T01:26:04.234Z,100797.22
2023-05-21T01:28:33.105Z,100785.03
2023-05-21T01:31:07.574Z,100789.03
2023-05-21T01:33:45.239Z,100792.19
2023-05-21T01:36:19.213Z,100794.66
2023-05-21T01:39:14.753Z,100785.84
2023-05-21T01:41:45.126Z,100791.31
2023-05-21T01:44:12.962Z,100791.75
2023-05-21T01:46:40.080Z,100796.16
2023-05-21T01:49:08.863Z,100793.22
2023-05-21T01:51:38.748Z,100790.75
2023-05-21T01:54:05.404Z,100781.50
2023-05-21T01:56:34.130Z,100783.19
2023-05-21T01:59:00.989Z,100777.94
2023-05-21T02:01:30.179Z,100790.97
2023-05-21T02:04:00.603Z,100790.97
2023-05-21T02:06:27.387Z,100789.69
2023-05-21T02:08:54.008Z,100788.00
2023-05-21T02:11:20.844Z,100792.59
2023-05-21T02:13:47.591Z,100797.59
2023-05-21T02:16:15.969Z,100798.00
2023-05-21T02:18:46.497Z,100800.72
2023-05-21T02:21:13.421Z,100805.94
2023-05-21T02:23:40.112Z,100800.91
2023-05-21T02:26:06.829Z,100798.38
2023-05-21T02:28:34.330Z,100796.69
2023-05-21T02:31:01.247Z,100793.75
2023-05-21T02:33:27.965Z,100785.78
2023-05-21T02:36:19.920Z,100778.84
2023-05-21T02:38:46.712Z,100791.19
2023-05-21T02:41:13.955Z,100787.19
2023-05-21T02:43:41.012Z,100787.84
2023-05-21T02:46:07.995Z,100785.09
2023-05-21T02:48:34.932Z,100786.94
2023-05-21T02:51:01.776Z,100776.66
2023-05-21T02:53:28.574Z,100777.31
2023-05-21T02:55:56.544Z,100770.75
2023-05-21T02:58:30.725Z,100770.06
2023-05-21T03:01:00.106Z,100761.47
2023-05-21T03:03:27.118Z,100766.72
2023-05-21T03:05:53.978Z,100769.88
2023-05-21T03:08:21.507Z,100768.59
2023-05-21T03:10:51.619Z,100767.78
2023-05-21T03:13:19.384Z,100764.59
2023-05-21T03:15:46.667Z,100774.41
2023-05-21T03:18:13.550Z,100769.81
2023-05-21T03:20:43.939Z,100768.50
2023-05-21T03:23:16.283Z,100768.69
2023-05-21T03:25:43.791Z,100772.03
2023-05-21T03:28:10.598Z,100761.31
2023-05-21T03:30:38.450Z,100767.00
2023-05-21T03:33:06.632Z,100757.84
2023-05-21T03:35:33.971Z,100755.97
2023-05-21T03:38:01.033Z,100750.34
2023-05-21T03:40:27.827Z,100757.66
2023-05-21T03:42:54.737Z,100759.53
2023-05-21T03:45:21.660Z,100767.09
2023-05-21T03:47:49.451Z,100764.53
2023-05-21T03:50:16.988Z,100769.13
2023-05-21T03:52:43.772Z,100779.38
2023-05-21T03:55:13.061Z,100780.88
2023-05-21T03:57:40.117Z,100772.75
2023-05-21T04:00:09.010Z,100769.41
2023-05-21T04:02:36.204Z,100771.28
2023-05-21T04:05:05.078Z,100770.81
2023-05-21T04:07:31.829Z,100762.59
2023-05-21T04:09:58.615Z,100770.31
2023-05-21T04:12:25.463Z,100766.97
2023-05-21T04:14:52.269Z,100767.50
2023-05-21T04:17:21.230Z,100762.47
2023-05-21T04:19:48.020Z,100755.75
2023-05-21T04:22:14.770Z,100756.78
2023-05-21T04:24:41.694Z,100757.63
2023-05-21T04:27:10.062Z,100756.78
2023-05-21T04:29:37.775Z,100756.34
2023-05-21T04:32:05.202Z,100755.38
2023-05-21T04:34:34.100Z,100746.38
2023-05-21T04:37:04.831Z,100753.88
2023-05-21T04:39:32.367Z,100749.31
2023-05-21T04:41:59.173Z,100751.44
2023-05-21T04:44:25.942Z,100755.38
2023-05-21T04:46:53.074Z,100748.09
2023-05-21T04:49:21.067Z,100753.97
2023-05-21T04:51:49.487Z,100747.50
2023-05-21T04:54:16.271Z,100752.72
2023-05-21T04:56:43.146Z,100756.31
2023-05-21T04:59:09.975Z,100760.94
2023-05-21T05:01:38.616Z,100759.09
2023-05-21T05:04:06.257Z,100767.94
2023-05-21T05:06:33.063Z,100760.88
2023-05-21T05:08:59.820Z,100760.91
2023-05-21T05:11:26.880Z,100762.84
2023-05-21T05:13:53.662Z,100766.69
2023-05-21T05:16:25.501Z,100754.34
2023-05-21T05:18:53.198Z,100751.44
2023-05-21T05:21:22.418Z,100745.00
2023-05-21T05:23:49.173Z,100750.47
2023-05-21T05:26:16.069Z,100754.47
2023-05-21T05:28:42.859Z,100753.69
2023-05-21T05:31:09.843Z,100749.91
2023-05-21T05:33:36.688Z,100752.44
2023-05-21T05:36:03.551Z,100742.97
2023-05-21T05:38:30.323Z,100733.25
2023-05-21T05:40:57.070Z,100732.34
2023-05-21T05:43:25.780Z,100739.88
2023-05-21T05:45:53.194Z,100737.13
2023-05-21T05:48:20.008Z,100739.19
2023-05-21T05:50:47.978Z,100734.31
2023-05-21T05:53:14.788Z,100721.78
2023-05-21T05:55:41.711Z,100729.69
2023-05-21T05:58:08.477Z,100728.31
2023-05-21T06:00:35.252Z,100722.97
2023-05-21T06:03:02.112Z,100727.72
2023-05-21T06:05:29.007Z,100728.44
2023-05-21T06:07:55.806Z,100731.34
2023-05-21T06:10:22.564Z,100724.34
2023-05-21T06:12:49.403Z,100731.31
2023-05-21T06:15:16.700Z,100730.50
2023-05-21T06:17:43.516Z,100730.06
2023-05-21T06:20:10.486Z,100738.44
2023-05-21T06:22:37.257Z,100737.22
2023-05-21T06:25:04.760Z,100729.31
2023-05-21T06:27:32.110Z,100732.84
2023-05-21T06:29:58.938Z,100730.03
2023-05-21T06:32:25.926Z,100734.53
2023-05-21T06:34:52.826Z,100736.69
2023-05-21T06:37:22.030Z,100739.69
2023-05-21T06:39:49.183Z,100740.81
2023-05-21T06:42:16.170Z,100744.63
2023-05-21T06:44:42.987Z,100747.16
2023-05-21T06:47:09.810Z,100749.19
2023-05-21T06:49:36.622Z,100746.19
2023-05-21T06:52:04.504Z,100752.41
2023-05-21T06:54:31.359Z,100749.69
2023-05-21T06:56:58.439Z,100754.94
2023-05-21T06:59:25.217Z,100762.19
2023-05-21T07:01:52.070Z,100768.94
2023-05-21T07:04:18.917Z,100760.56
2023-05-21T07:06:45.808Z,100761.50
2023-05-21T07:09:12.657Z,100760.16
2023-05-21T07:11:39.459Z,100764.66
2023-05-21T07:14:06.649Z,100762.34
2023-05-21T07:16:53.947Z,100760.88
2023-05-21T07:19:26.774Z,100762.81
2023-05-21T07:21:53.804Z,100755.06
2023-05-21T07:28:30.449Z,100756.84
2023-05-21T07:30:57.486Z,100758.06
2023-05-21T07:33:24.244Z,100754.53
2023-05-21T07:35:51.567Z,100756.56
2023-05-21T07:38:52.508Z,100753.81
2023-05-21T07:41:49.698Z,100756.13
2023-05-21T07:44:16.910Z,100755.28
2023-05-21T07:46:44.172Z,100757.44
2023-05-21T07:49:26.031Z,100758.16
2023-05-21T07:51:52.839Z,100760.09
2023-05-21T07:54:26.013Z,100771.09
2023-05-21T07:56:55.913Z,100761.28
2023-05-21T07:59:23.125Z,100755.41
2023-05-21T08:01:50.321Z,100762.69
2023-05-21T08:04:17.520Z,100755.28
2023-05-21T08:06:44.548Z,100761.34
2023-05-21T08:09:12.367Z,100756.78
2023-05-21T08:11:39.189Z,100754.88
2023-05-21T08:14:06.569Z,100767.28
2023-05-21T08:16:33.414Z,100757.06
2023-05-21T08:19:00.257Z,100761.81
2023-05-21T08:21:29.344Z,100768.00
2023-05-21T08:23:56.232Z,100748.16
2023-05-21T08:26:30.879Z,100751.78
2023-05-21T08:29:01.897Z,100749.00
2023-05-21T08:31:29.913Z,100751.72
2023-05-21T08:33:56.837Z,100749.91
2023-05-21T08:36:23.905Z,100755.72
2023-05-21T08:38:51.003Z,100751.34
2023-05-21T08:41:22.203Z,100759.53
2023-05-21T08:43:59.673Z,100755.72
2023-05-21T08:46:33.250Z,100751.00
2023-05-21T08:49:03.015Z,100758.88
2023-05-21T08:51:31.218Z,100749.78
2023-05-21T08:53:59.872Z,100750.22
2023-05-21T08:56:27.321Z,100755.38
2023-05-21T08:58:54.440Z,100752.47
2023-05-21T09:01:24.130Z,100748.19
2023-05-21T09:03:57.118Z,100755.03
2023-05-21T09:06:26.333Z,100755.88
2023-05-21T09:09:06.797Z,100759.81
2023-05-21T09:11:33.715Z,100754.53
2023-05-21T09:14:01.457Z,100749.25
2023-05-21T09:16:28.263Z,100749.25
2023-05-21T09:18:55.075Z,100751.53
2023-05-21T09:21:29.822Z,100742.59
2023-05-21T09:23:58.574Z,100749.09
2023-05-21T09:26:26.753Z,100745.59
2023-05-21T09:28:57.935Z,100740.69
2023-05-21T09:31:27.362Z,100734.22
2023-05-21T09:33:55.752Z,100740.72
2023-05-21T09:36:23.163Z,100741.91
2023-05-21T09:38:52.182Z,100732.38
2023-05-21T09:41:32.719Z,100739.00
2023-05-21T09:44:01.195Z,100739.06
2023-05-21T09:46:28.195Z,100735.41
2023-05-21T09:48:54.973Z,100723.88
2023-05-21T09:51:21.872Z,100734.56
2023-05-21T09:53:52.418Z,100727.28
2023-05-21T09:56:24.745Z,100731.06
2023-05-21T09:58:56.944Z,100725.78
2023-05-21T10:01:25.169Z,100726.28
2023-05-21T10:03:57.380Z,100718.84
2023-05-21T10:06:29.145Z,100726.59
2023-05-21T10:08:58.204Z,100715.72
2023-05-21T10:11:31.323Z,100712.59
2023-05-21T10:14:04.877Z,100712.59
2023-05-21T10:16:33.870Z,100721.03
2023-05-21T10:19:01.406Z,100719.44
2023-05-21T10:21:28.442Z,100708.69
2023-05-21T10:23:58.777Z,100705.63
2023-05-21T10:26:26.554Z,100710.44
2023-05-21T10:28:56.238Z,100702.59
2023-05-21T10:31:23.373Z,100698.06
2023-05-21T10:33:53.381Z,100708.59
2023-05-21T10:36:28.444Z,100699.16
2023-05-21T10:38:57.158Z,100705.16
2023-05-21T10:41:26.289Z,100704.66
2023-05-21T10:48:03.072Z,100696.94
2023-05-21T11:01:40.048Z,100683.13
2023-05-21T11:04:50.702Z,100686.56
2023-05-21T11:07:07.950Z,100684.00
2023-05-21T11:09:35.961Z,100682.72
2023-05-21T11:12:04.920Z,100682.97
2023-05-21T11:14:40.190Z,100671.72
2023-05-21T11:17:09.891Z,100662.44
2023-05-21T11:19:39.760Z,100671.94
2023-05-21T11:22:08.750Z,100667.19
2023-05-21T11:24:41.504Z,100662.81
2023-05-21T11:27:08.972Z,100664.19
2023-05-21T11:29:44.525Z,100669.28
2023-05-21T11:32:13.356Z,100670.00
2023-05-21T11:34:40.942Z,100654.16
2023-05-21T11:37:19.388Z,100655.00
2023-05-21T11:39:47.126Z,100662.03
2023-05-21T11:42:27.768Z,100664.31
2023-05-21T11:44:57.823Z,100646.81
2023-05-21T11:47:26.584Z,100652.47
2023-05-21T11:49:55.317Z,100653.59
2023-05-21T11:52:22.290Z,100648.66
2023-05-21T11:54:54.211Z,100648.09
2023-05-21T11:57:22.241Z,100651.69
2023-05-21T11:59:51.636Z,100644.53
2023-05-21T12:02:20.542Z,100644.28
2023-05-21T12:04:49.233Z,100639.88
2023-05-21T12:07:19.113Z,100638.34
2023-05-21T12:09:50.837Z,100641.06
2023-05-21T12:12:21.457Z,100629.72
2023-05-21T12:14:52.917Z,100635.31
2023-05-21T12:17:24.160Z,100636.44
2023-05-21T12:19:53.946Z,100627.50
2023-05-21T12:22:22.373Z,100630.06
2023-05-21T12:24:49.576Z,100622.34
2023-05-21T12:27:16.981Z,100636.75
2023-05-21T12:29:46.527Z,100628.72
2023-05-21T12:32:15.115Z,100634.78
2023-05-21T12:34:46.353Z,100628.63
2023-05-21T12:37:26.558Z,100612.38
2023-05-21T12:39:56.232Z,100618.47
2023-05-21T12:42:36.005Z,100622.13
2023-05-21T12:45:10.206Z,100627.38
2023-05-21T12:47:37.530Z,100622.38
2023-05-21T12:50:10.850Z,100613.19
2023-05-21T12:52:37.849Z,100617.63
2023-05-21T12:55:17.949Z,100618.53
2023-05-21T12:57:44.957Z,100607.44
2023-05-21T13:00:12.387Z,100607.97
2023-05-21T13:02:41.517Z,100597.47
2023-05-21T13:05:11.070Z,100621.88
2023-05-21T13:07:39.930Z,100610.78
2023-05-21T13:10:44.955Z,100616.88
2023-05-21T13:13:11.814Z,100608.00
2023-05-21T13:15:39.164Z,100595.78
2023-05-21T13:18:06.512Z,100599.13
2023-05-21T13:20:33.542Z,100595.22
2023-05-21T13:23:02.138Z,100610.19
2023-05-21T13:25:32.588Z,100599.63
2023-05-21T13:28:02.975Z,100605.44
2023-05-21T13:30:30.186Z,100606.56
2023-05-21T13:32:57.683Z,100608.50
2023-05-21T13:35:25.333Z,100607.69
2023-05-21T13:37:52.452Z,100602.41
2023-05-21T13:41:07.878Z,100606.56
2023-05-21T13:43:25.648Z,100600.72
2023-05-21T13:45:52.817Z,100607.38
2023-05-21T13:48:22.546Z,100610.75
2023-05-21T13:50:49.555Z,100599.63
2023-05-21T13:53:16.451Z,100594.31
2023-05-21T13:56:41.004Z,100591.25
2023-05-21T14:02:25.070Z,100589.28
2023-05-21T14:13:19.965Z,100580.41
2023-05-21T14:16:07.745Z,100575.56
2023-05-21T14:18:43.940Z,100584.34
2023-05-21T14:21:12.188Z,100588.63
2023-05-21T14:23:41.603Z,100583.69
2023-05-21T14:26:08.642Z,100590.13
2023-05-21T14:28:37.968Z,100583.75
2023-05-21T14:31:04.962Z,100575.34
2023-05-21T14:33:32.996Z,100571.38
2023-05-21T14:39:55.752Z,100586.13
2023-05-21T14:42:23.200Z,100567.78
2023-05-21T14:44:50.041Z,100565.47
2023-05-21T14:47:17.029Z,100562.09
2023-05-21T14:49:44.000Z,100567.75
2023-05-21T14:52:11.028Z,100569.72
2023-05-21T14:54:50.408Z,100563.34
2023-05-21T14:57:17.411Z,100560.53
2023-05-21T15:03:05.548Z,100556.63
2023-05-21T15:05:36.220Z,100550.63
2023-05-21T15:10:42.311Z,100559.41
2023-05-21T15:10:57.520Z,100555.03
2023-05-21T15:13:24.468Z,100562.22
2023-05-21T15:15:51.404Z,100550.38
2023-05-21T15:18:21.276Z,100546.34
2023-05-21T15:21:00.942Z,100554.09
2023-05-21T15:23:59.462Z,100549.91
2023-05-21T15:29:50.708Z,100547.00
2023-05-21T15:32:15.931Z,100548.13
2023-05-21T15:32:19.249Z,100545.53
2023-05-21T15:34:46.406Z,100542.78
2023-05-21T15:37:42.093Z,100533.91
2023-05-21T15:40:15.063Z,100541.00
2023-05-21T15:43:22.942Z,100540.16
2023-05-21T15:45:40.121Z,100541.38
2023-05-21T15:48:49.201Z,100540.50
2023-05-21T15:51:51.024Z,100530.00
2023-05-21T15:54:13.762Z,100535.25
2023-05-21T15:56:46.243Z,100535.53
2023-05-21T16:00:23.483Z,100525.00
2023-05-21T16:02:42.058Z,100534.91
2023-05-21T16:05:18.487Z,100530.19
2023-05-21T16:07:46.500Z,100532.69
2023-05-21T16:10:13.324Z,100518.81
2023-05-21T16:12:40.281Z,100529.38
2023-05-21T16:15:13.650Z,100527.19
2023-05-21T16:17:57.439Z,100523.56
2023-05-21T16:21:59.836Z,100531.59
2023-05-21T16:25:24.937Z,100517.59
2023-05-21T16:27:37.500Z,100520.03
2023-05-21T16:30:05.629Z,100510.50
2023-05-21T16:32:33.383Z,100518.31
2023-05-21T16:35:00.707Z,100520.41
2023-05-21T16:37:27.776Z,100523.47
2023-05-21T16:39:57.162Z,100533.13
2023-05-21T16:42:24.413Z,100530.94
2023-05-21T16:44:51.894Z,100523.94
2023-05-21T16:47:24.956Z,100517.53
2023-05-21T16:49:52.499Z,100534.28
2023-05-21T16:52:19.424Z,100512.94
2023-05-21T16:54:50.347Z,100515.59
2023-05-21T16:57:17.348Z,100524.44
2023-05-21T16:59:49.159Z,100518.06
2023-05-21T17:08:53.122Z,100507.84
2023-05-21T17:09:55.808Z,100506.50
2023-05-21T17:12:22.840Z,100500.66
2023-05-21T17:18:24.006Z,100496.34
2023-05-21T17:23:21.873Z,100501.84
2023-05-21T17:23:49.283Z,100509.41
2023-05-21T17:26:29.674Z,100494.94
2023-05-21T17:28:57.198Z,100498.84
2023-05-21T17:30:24.254Z,100499.97
2023-05-21T17:31:30.089Z,100510.38
2023-05-21T17:35:50.691Z,100516.59
2023-05-21T17:37:47.806Z,100508.31
2023-05-21T17:44:32.202Z,100500.75
2023-05-21T17:46:22.773Z,100513.50
2023-05-21T17:46:59.514Z,100510.19
2023-05-21T17:49:26.556Z,100505.72
2023-05-21T17:51:55.657Z,100506.28
2023-05-21T17:54:22.596Z,100505.78
2023-05-21T17:57:09.122Z,100506.84
2023-05-21T18:00:08.730Z,100510.66
2023-05-21T18:36:21.536Z,100523.38
2023-05-21T18:39:35.216Z,100526.75
2023-05-21T18:42:01.557Z,100526.47
2023-05-21T18:44:38.192Z,100528.69
2023-05-21T18:47:08.295Z,100534.22
2023-05-21T18:49:36.690Z,100537.53
2023-05-21T18:52:05.983Z,100543.09
2023-05-21T18:54:32.994Z,100551.38
2023-05-21T18:57:00.582Z,100535.31
2023-05-21T18:59:28.787Z,100533.66
2023-05-21T19:01:55.810Z,100539.16
2023-05-21T19:04:22.902Z,100543.03
2023-05-21T19:06:49.844Z,100546.03
2023-05-21T19:09:16.730Z,100543.28
2023-05-21T19:11:43.654Z,100538.25
2023-05-21T19:14:10.451Z,100545.72
2023-05-21T19:16:37.717Z,100540.19
2023-05-21T19:19:05.668Z,100568.94
2023-05-21T19:21:32.772Z,100550.91
2023-05-21T19:23:59.712Z,100555.94
2023-05-21T19:26:26.530Z,100552.84
2023-05-21T19:28:54.793Z,100560.28
2023-05-21T19:31:22.897Z,100559.34
2023-05-21T19:33:50.215Z,100559.31
2023-05-21T19:36:17.330Z,100564.84
2023-05-21T19:38:51.186Z,100563.44
2023-05-21T19:41:19.800Z,100569.50
2023-05-21T19:43:46.840Z,100564.19
2023-05-21T19:46:17.231Z,100565.28
2023-05-21T19:48:47.157Z,100556.94
2023-05-21T19:51:14.108Z,100562.97
2023-05-21T19:53:41.058Z,100566.22
2023-05-21T19:56:08.806Z,100566.16
2023-05-21T19:58:36.010Z,100574.44
2023-05-21T20:01:07.309Z,100567.47
2023-05-21T20:03:36.748Z,100572.13
2023-05-21T20:06:04.008Z,100576.19
2023-05-21T20:08:30.910Z,100584.44
2023-05-21T20:10:57.731Z,100588.22
2023-05-21T20:13:24.749Z,100585.41
2023-05-21T20:15:51.617Z,100585.84
2023-05-21T20:18:20.320Z,100588.28
2023-05-21T20:20:47.404Z,100587.47
2023-05-21T20:23:14.392Z,100592.06
2023-05-21T20:25:41.287Z,100595.25
2023-05-21T20:28:09.537Z,100600.78
2023-05-21T20:30:52.681Z,100596.59
2023-05-21T20:33:20.593Z,100614.72
2023-05-21T20:35:47.439Z,100602.28
2023-05-21T20:38:16.207Z,100615.94
2023-05-21T20:40:43.953Z,100612.59
2023-05-21T20:43:12.208Z,100618.63
2023-05-21T20:45:39.556Z,100610.28
2023-05-21T20:48:06.916Z,100610.72
2023-05-21T20:50:34.936Z,100616.19
2023-05-21T20:53:02.101Z,100617.84
2023-05-21T20:55:29.047Z,100612.84
2023-05-21T20:57:56.196Z,100619.91
2023-05-21T21:00:23.040Z,100615.09
2023-05-21T21:02:50.045Z,100623.59
2023-05-21T21:05:16.807Z,100614.75
2023-05-21T21:07:45.779Z,100618.19
2023-05-21T21:10:12.667Z,100621.94
2023-05-21T21:12:39.513Z,100609.44
2023-05-21T21:15:07.030Z,100609.84
2023-05-21T21:17:33.864Z,100614.75
2023-05-21T21:20:00.656Z,100613.56
2023-05-21T21:22:28.730Z,100606.56
2023-05-21T21:24:55.686Z,100614.50
2023-05-21T21:27:22.424Z,100612.50
2023-05-21T21:29:49.258Z,100613.00
2023-05-21T21:32:16.204Z,100606.91
2023-05-21T21:34:42.989Z,100605.38
2023-05-21T21:37:09.788Z,100610.91
2023-05-21T21:39:36.549Z,100605.56
2023-05-21T21:42:03.464Z,100613.50
2023-05-21T21:44:30.427Z,100615.06
2023-05-21T21:46:57.184Z,100610.56
2023-05-21T21:49:24.008Z,100612.72
2023-05-21T21:51:51.725Z,100613.22
2023-05-21T21:54:18.606Z,100617.13
2023-05-21T21:56:45.456Z,100617.03
2023-05-21T21:59:12.294Z,100615.53
2023-05-21T22:01:39.209Z,100611.84
2023-05-21T22:04:06.051Z,100612.25
2023-05-21T22:06:33.299Z,100612.13
2023-05-21T22:09:00.173Z,100613.97
2023-05-21T22:11:28.533Z,100610.13
2023-05-21T22:13:56.217Z,100609.53
2023-05-21T22:16:25.019Z,100610.03
2023-05-21T22:18:54.303Z,100609.69
2023-05-21T22:21:21.762Z,100606.34
2023-05-21T22:23:48.518Z,100602.41
2023-05-21T22:26:15.283Z,100605.16
2023-05-21T22:28:42.233Z,100603.38
2023-05-21T22:31:09.233Z,100598.38
2023-05-21T22:33:36.765Z,100598.88
2023-05-21T22:36:03.606Z,100597.53
2023-05-21T22:38:30.662Z,100596.34
2023-05-21T22:40:57.480Z,100606.31
2023-05-21T22:43:25.498Z,100597.81
2023-05-21T22:45:52.314Z,100594.69
2023-05-21T22:48:22.058Z,100594.56
2023-05-21T22:50:50.323Z,100589.56
2023-05-21T22:53:17.728Z,100585.38
2023-05-21T22:55:44.708Z,100583.38
2023-05-21T22:58:11.478Z,100587.66
2023-05-21T23:00:38.583Z,100591.50
2023-05-21T23:03:05.746Z,100591.88
2023-05-21T23:05:32.551Z,100589.34
2023-05-21T23:07:59.365Z,100589.22
2023-05-21T23:10:26.279Z,100590.31
2023-05-21T23:12:53.108Z,100591.41
2023-05-21T23:15:20.003Z,100592.69
2023-05-21T23:17:50.131Z,100600.59
2023-05-21T23:20:16.988Z,100588.75
2023-05-21T23:22:43.795Z,100590.56
2023-05-21T23:25:10.537Z,100599.91
2023-05-21T23:27:37.411Z,100595.22
2023-05-21T23:30:04.496Z,100596.53
2023-05-21T23:32:31.360Z,100601.19
2023-05-21T23:34:58.361Z,100590.94
2023-05-21T23:37:25.303Z,100590.25
2023-05-21T23:39:52.162Z,100593.91
2023-05-21T23:42:19.490Z,100594.78
2023-05-21T23:44:46.266Z,100593.44
2023-05-21T23:47:13.085Z,100596.09
2023-05-21T23:49:40.034Z,100597.84
2023-05-21T23:52:07.492Z,100593.66
2023-05-21T23:54:34.296Z,100596.47
2023-05-21T23:57:02.201Z,100587.47
2023-05-21T23:59:29.386Z,100590.94
